Terminal Aerodrome Forecast
Issued by NWS Wakefield, VA

Home | Current Version | Previous Version | Text Only | Print | Product List | Glossary On
Versions: 1 2 3 4 5 6 7 8 9 10 11 12 13 14 15 16 17
000
FTUS41 KAKQ 221700
TAFORF
TAF
KORF 221740Z 2218/2318 VRB06KT P6SM FEW030 BKN150
     FM230900 06004KT P6SM BKN020
     FM231500 06010KT P6SM SCT020=

USA.gov is the U.S. government's official web portal to all federal, state and local government web resources and services.